sensor_id;sensor_type;location;lat;lon;timestamp;P1;durP1;ratioP1;P2;durP2;ratioP2
36353;SDS011;22383;51.114;13.666;2024-03-06T00:02:22;62.58;;;25.92;;
36353;SDS011;22383;51.114;13.666;2024-03-06T00:04:49;58.38;;;23.73;;
36353;SDS011;22383;51.114;13.666;2024-03-06T00:07:17;59.20;;;25.23;;
36353;SDS011;22383;51.114;13.666;2024-03-06T00:09:44;61.22;;;25.45;;
36353;SDS011;22383;51.114;13.666;2024-03-06T00:16:24;59.75;;;23.25;;
36353;SDS011;22383;51.114;13.666;2024-03-06T00:18:52;56.85;;;24.10;;
36353;SDS011;22383;51.114;13.666;2024-03-06T00:21:19;59.30;;;23.90;;
36353;SDS011;22383;51.114;13.666;2024-03-06T00:23:46;56.30;;;24.42;;
36353;SDS011;22383;51.114;13.666;2024-03-06T00:26:13;53.47;;;23.98;;
36353;SDS011;22383;51.114;13.666;2024-03-06T00:28:40;59.55;;;22.35;;
36353;SDS011;22383;51.114;13.666;2024-03-06T00:31:08;56.40;;;22.63;;
36353;SDS011;22383;51.114;13.666;2024-03-06T00:33:35;58.22;;;24.10;;
36353;SDS011;22383;51.114;13.666;2024-03-06T00:36:02;57.67;;;24.23;;
36353;SDS011;22383;51.114;13.666;2024-03-06T00:38:29;60.38;;;25.05;;
36353;SDS011;22383;51.114;13.666;2024-03-06T00:40:56;62.17;;;25.13;;
36353;SDS011;22383;51.114;13.666;2024-03-06T00:45:51;49.15;;;22.20;;
36353;SDS011;22383;51.114;13.666;2024-03-06T00:48:19;60.80;;;24.73;;
36353;SDS011;22383;51.114;13.666;2024-03-06T00:50:49;58.88;;;25.10;;
36353;SDS011;22383;51.114;13.666;2024-03-06T00:53:16;54.50;;;24.02;;
36353;SDS011;22383;51.114;13.666;2024-03-06T00:55:43;58.47;;;23.00;;
36353;SDS011;22383;51.114;13.666;2024-03-06T00:58:10;50.53;;;22.02;;
36353;SDS011;22383;51.114;13.666;2024-03-06T01:00:38;60.05;;;23.20;;
36353;SDS011;22383;51.114;13.666;2024-03-06T01:03:06;60.58;;;23.38;;
36353;SDS011;22383;51.114;13.666;2024-03-06T01:05:33;58.08;;;25.38;;
36353;SDS011;22383;51.114;13.666;2024-03-06T01:08:00;61.75;;;24.98;;
36353;SDS011;22383;51.114;13.666;2024-03-06T01:10:27;71.50;;;26.10;;
36353;SDS011;22383;51.114;13.666;2024-03-06T01:12:55;56.88;;;25.48;;
36353;SDS011;22383;51.114;13.666;2024-03-06T01:15:22;64.20;;;25.95;;
36353;SDS011;22383;51.114;13.666;2024-03-06T01:17:49;63.13;;;24.98;;
36353;SDS011;22383;51.114;13.666;2024-03-06T01:20:17;61.92;;;25.98;;
36353;SDS011;22383;51.114;13.666;2024-03-06T01:22:45;62.35;;;23.73;;
36353;SDS011;22383;51.114;13.666;2024-03-06T01:25:13;65.78;;;25.50;;
36353;SDS011;22383;51.114;13.666;2024-03-06T01:27:40;60.28;;;24.45;;
36353;SDS011;22383;51.114;13.666;2024-03-06T01:30:07;64.07;;;24.70;;
36353;SDS011;22383;51.114;13.666;2024-03-06T01:32:35;59.45;;;24.15;;
36353;SDS011;22383;51.114;13.666;2024-03-06T01:35:03;62.22;;;25.95;;
36353;SDS011;22383;51.114;13.666;2024-03-06T01:37:32;64.13;;;25.73;;
36353;SDS011;22383;51.114;13.666;2024-03-06T01:39:59;72.93;;;27.13;;
36353;SDS011;22383;51.114;13.666;2024-03-06T01:42:26;72.78;;;25.52;;
36353;SDS011;22383;51.114;13.666;2024-03-06T01:44:53;62.42;;;23.95;;
36353;SDS011;22383;51.114;13.666;2024-03-06T01:47:20;59.20;;;25.63;;
36353;SDS011;22383;51.114;13.666;2024-03-06T01:49:48;55.97;;;22.85;;
36353;SDS011;22383;51.114;13.666;2024-03-06T01:52:16;65.75;;;24.83;;
36353;SDS011;22383;51.114;13.666;2024-03-06T01:54:44;74.97;;;25.20;;
36353;SDS011;22383;51.114;13.666;2024-03-06T01:57:12;66.43;;;26.25;;
36353;SDS011;22383;51.114;13.666;2024-03-06T01:59:42;70.30;;;27.95;;
36353;SDS011;22383;51.114;13.666;2024-03-06T02:04:38;69.43;;;25.08;;
36353;SDS011;22383;51.114;13.666;2024-03-06T02:07:08;70.70;;;26.15;;
36353;SDS011;22383;51.114;13.666;2024-03-06T02:09:37;63.58;;;25.77;;
36353;SDS011;22383;51.114;13.666;2024-03-06T02:12:06;63.80;;;25.40;;
36353;SDS011;22383;51.114;13.666;2024-03-06T02:14:35;68.00;;;27.60;;
36353;SDS011;22383;51.114;13.666;2024-03-06T02:17:03;64.45;;;26.65;;
36353;SDS011;22383;51.114;13.666;2024-03-06T02:19:40;64.88;;;27.35;;
36353;SDS011;22383;51.114;13.666;2024-03-06T02:22:08;74.32;;;26.63;;
36353;SDS011;22383;51.114;13.666;2024-03-06T02:24:36;72.72;;;26.17;;
36353;SDS011;22383;51.114;13.666;2024-03-06T02:27:04;64.15;;;26.42;;
36353;SDS011;22383;51.114;13.666;2024-03-06T02:29:34;71.75;;;26.55;;
36353;SDS011;22383;51.114;13.666;2024-03-06T02:34:29;70.07;;;26.45;;
36353;SDS011;22383;51.114;13.666;2024-03-06T02:36:57;77.95;;;27.05;;
36353;SDS011;22383;51.114;13.666;2024-03-06T02:39:24;62.65;;;26.73;;
36353;SDS011;22383;51.114;13.666;2024-03-06T02:41:51;77.30;;;28.13;;
36353;SDS011;22383;51.114;13.666;2024-03-06T02:44:18;69.97;;;27.52;;
36353;SDS011;22383;51.114;13.666;2024-03-06T02:46:47;90.15;;;31.10;;
36353;SDS011;22383;51.114;13.666;2024-03-06T02:49:15;85.57;;;30.95;;
36353;SDS011;22383;51.114;13.666;2024-03-06T02:54:10;83.70;;;32.08;;
36353;SDS011;22383;51.114;13.666;2024-03-06T02:56:37;90.72;;;33.67;;
36353;SDS011;22383;51.114;13.666;2024-03-06T02:59:04;94.35;;;34.78;;
36353;SDS011;22383;51.114;13.666;2024-03-06T03:01:33;90.63;;;34.30;;
36353;SDS011;22383;51.114;13.666;2024-03-06T03:04:01;93.65;;;36.35;;
36353;SDS011;22383;51.114;13.666;2024-03-06T03:06:29;94.57;;;34.15;;
36353;SDS011;22383;51.114;13.666;2024-03-06T03:08:56;94.97;;;35.67;;
36353;SDS011;22383;51.114;13.666;2024-03-06T03:11:23;93.40;;;35.88;;
36353;SDS011;22383;51.114;13.666;2024-03-06T03:13:50;88.07;;;33.58;;
36353;SDS011;22383;51.114;13.666;2024-03-06T03:16:18;92.15;;;33.67;;
36353;SDS011;22383;51.114;13.666;2024-03-06T03:18:47;98.03;;;36.22;;
36353;SDS011;22383;51.114;13.666;2024-03-06T03:23:42;95.15;;;32.00;;
36353;SDS011;22383;51.114;13.666;2024-03-06T03:26:10;80.47;;;32.40;;
36353;SDS011;22383;51.114;13.666;2024-03-06T03:28:40;83.10;;;30.65;;
36353;SDS011;22383;51.114;13.666;2024-03-06T03:31:07;88.57;;;31.45;;
36353;SDS011;22383;51.114;13.666;2024-03-06T03:33:38;81.30;;;32.35;;
36353;SDS011;22383;51.114;13.666;2024-03-06T03:36:06;90.05;;;33.38;;
36353;SDS011;22383;51.114;13.666;2024-03-06T03:38:38;92.80;;;34.08;;
36353;SDS011;22383;51.114;13.666;2024-03-06T03:41:11;92.65;;;33.50;;
36353;SDS011;22383;51.114;13.666;2024-03-06T03:43:40;81.80;;;32.92;;
36353;SDS011;22383;51.114;13.666;2024-03-06T03:46:07;89.47;;;33.58;;
36353;SDS011;22383;51.114;13.666;2024-03-06T03:48:36;89.90;;;36.20;;
36353;SDS011;22383;51.114;13.666;2024-03-06T03:51:04;90.22;;;34.97;;
36353;SDS011;22383;51.114;13.666;2024-03-06T03:53:34;96.60;;;36.38;;
36353;SDS011;22383;51.114;13.666;2024-03-06T03:56:01;90.45;;;35.20;;
36353;SDS011;22383;51.114;13.666;2024-03-06T03:58:30;90.20;;;33.72;;
36353;SDS011;22383;51.114;13.666;2024-03-06T04:00:58;92.75;;;35.90;;
36353;SDS011;22383;51.114;13.666;2024-03-06T04:03:26;88.07;;;34.58;;
36353;SDS011;22383;51.114;13.666;2024-03-06T04:05:53;89.65;;;33.22;;
36353;SDS011;22383;51.114;13.666;2024-03-06T04:08:20;82.60;;;33.08;;
36353;SDS011;22383;51.114;13.666;2024-03-06T04:10:47;86.75;;;34.22;;
36353;SDS011;22383;51.114;13.666;2024-03-06T04:13:15;84.20;;;32.50;;
36353;SDS011;22383;51.114;13.666;2024-03-06T04:15:43;85.30;;;32.50;;
36353;SDS011;22383;51.114;13.666;2024-03-06T04:18:10;88.28;;;32.05;;
36353;SDS011;22383;51.114;13.666;2024-03-06T04:20:38;78.18;;;33.47;;
36353;SDS011;22383;51.114;13.666;2024-03-06T04:23:05;87.65;;;32.47;;
36353;SDS011;22383;51.114;13.666;2024-03-06T04:25:32;83.60;;;32.38;;
36353;SDS011;22383;51.114;13.666;2024-03-06T04:28:00;83.20;;;32.30;;
36353;SDS011;22383;51.114;13.666;2024-03-06T04:30:29;80.63;;;32.05;;
36353;SDS011;22383;51.114;13.666;2024-03-06T04:32:56;90.90;;;34.40;;
36353;SDS011;22383;51.114;13.666;2024-03-06T04:35:23;79.43;;;30.75;;
36353;SDS011;22383;51.114;13.666;2024-03-06T04:37:50;71.10;;;27.45;;
36353;SDS011;22383;51.114;13.666;2024-03-06T04:40:17;69.10;;;28.00;;
36353;SDS011;22383;51.114;13.666;2024-03-06T04:42:47;70.03;;;28.33;;
36353;SDS011;22383;51.114;13.666;2024-03-06T04:45:15;72.35;;;27.52;;
36353;SDS011;22383;51.114;13.666;2024-03-06T04:47:43;76.13;;;29.40;;
36353;SDS011;22383;51.114;13.666;2024-03-06T04:50:11;72.70;;;26.88;;
36353;SDS011;22383;51.114;13.666;2024-03-06T04:52:41;84.15;;;28.88;;
36353;SDS011;22383;51.114;13.666;2024-03-06T04:55:09;70.80;;;28.27;;
36353;SDS011;22383;51.114;13.666;2024-03-06T04:57:40;74.40;;;28.85;;
36353;SDS011;22383;51.114;13.666;2024-03-06T05:00:10;82.68;;;29.55;;
36353;SDS011;22383;51.114;13.666;2024-03-06T05:02:38;111.38;;;38.72;;
36353;SDS011;22383;51.114;13.666;2024-03-06T05:05:23;120.78;;;38.38;;
36353;SDS011;22383;51.114;13.666;2024-03-06T05:08:09;105.00;;;35.47;;
36353;SDS011;22383;51.114;13.666;2024-03-06T05:10:54;83.68;;;32.38;;
36353;SDS011;22383;51.114;13.666;2024-03-06T05:13:39;76.72;;;30.48;;
36353;SDS011;22383;51.114;13.666;2024-03-06T05:16:23;81.72;;;31.20;;
36353;SDS011;22383;51.114;13.666;2024-03-06T05:19:09;82.82;;;30.17;;
36353;SDS011;22383;51.114;13.666;2024-03-06T05:21:55;83.28;;;31.23;;
36353;SDS011;22383;51.114;13.666;2024-03-06T05:24:40;83.07;;;30.63;;
36353;SDS011;22383;51.114;13.666;2024-03-06T05:27:25;95.32;;;32.63;;
36353;SDS011;22383;51.114;13.666;2024-03-06T05:30:10;86.03;;;32.28;;
36353;SDS011;22383;51.114;13.666;2024-03-06T05:32:56;84.00;;;30.27;;
36353;SDS011;22383;51.114;13.666;2024-03-06T05:35:41;81.00;;;29.90;;
36353;SDS011;22383;51.114;13.666;2024-03-06T05:38:26;95.85;;;31.77;;
36353;SDS011;22383;51.114;13.666;2024-03-06T05:41:11;83.80;;;30.48;;
36353;SDS011;22383;51.114;13.666;2024-03-06T05:43:55;94.32;;;33.83;;
36353;SDS011;22383;51.114;13.666;2024-03-06T05:46:41;102.80;;;33.75;;
36353;SDS011;22383;51.114;13.666;2024-03-06T05:49:25;98.75;;;37.92;;
36353;SDS011;22383;51.114;13.666;2024-03-06T05:52:09;90.68;;;34.03;;
36353;SDS011;22383;51.114;13.666;2024-03-06T05:54:55;95.50;;;33.33;;
36353;SDS011;22383;51.114;13.666;2024-03-06T05:57:39;96.15;;;34.75;;
36353;SDS011;22383;51.114;13.666;2024-03-06T06:00:29;93.50;;;36.20;;
36353;SDS011;22383;51.114;13.666;2024-03-06T06:02:56;104.20;;;35.25;;
36353;SDS011;22383;51.114;13.666;2024-03-06T06:05:23;94.70;;;34.92;;
36353;SDS011;22383;51.114;13.666;2024-03-06T06:07:51;112.20;;;38.60;;
36353;SDS011;22383;51.114;13.666;2024-03-06T06:10:30;104.75;;;38.97;;
36353;SDS011;22383;51.114;13.666;2024-03-06T06:12:57;113.13;;;39.40;;
36353;SDS011;22383;51.114;13.666;2024-03-06T06:15:25;112.68;;;40.67;;
36353;SDS011;22383;51.114;13.666;2024-03-06T06:17:52;124.03;;;44.17;;
36353;SDS011;22383;51.114;13.666;2024-03-06T06:20:19;117.75;;;40.75;;
36353;SDS011;22383;51.114;13.666;2024-03-06T06:22:47;105.30;;;38.53;;
36353;SDS011;22383;51.114;13.666;2024-03-06T06:25:14;113.10;;;37.03;;
36353;SDS011;22383;51.114;13.666;2024-03-06T06:27:43;107.40;;;36.22;;
36353;SDS011;22383;51.114;13.666;2024-03-06T06:30:10;90.15;;;35.83;;
36353;SDS011;22383;51.114;13.666;2024-03-06T06:32:40;99.90;;;36.20;;
36353;SDS011;22383;51.114;13.666;2024-03-06T06:35:09;109.03;;;37.97;;
36353;SDS011;22383;51.114;13.666;2024-03-06T06:37:37;97.68;;;37.35;;
36353;SDS011;22383;51.114;13.666;2024-03-06T06:42:34;89.35;;;33.28;;
36353;SDS011;22383;51.114;13.666;2024-03-06T06:45:02;96.43;;;35.05;;
36353;SDS011;22383;51.114;13.666;2024-03-06T06:47:30;94.97;;;33.72;;
36353;SDS011;22383;51.114;13.666;2024-03-06T06:49:57;101.30;;;35.70;;
36353;SDS011;22383;51.114;13.666;2024-03-06T06:52:24;93.22;;;36.05;;
36353;SDS011;22383;51.114;13.666;2024-03-06T06:54:54;101.50;;;35.75;;
36353;SDS011;22383;51.114;13.666;2024-03-06T06:57:22;84.55;;;34.10;;
36353;SDS011;22383;51.114;13.666;2024-03-06T06:59:49;96.25;;;34.55;;
36353;SDS011;22383;51.114;13.666;2024-03-06T07:02:17;88.07;;;33.00;;
36353;SDS011;22383;51.114;13.666;2024-03-06T07:04:44;85.72;;;32.58;;
36353;SDS011;22383;51.114;13.666;2024-03-06T07:07:11;92.15;;;34.75;;
36353;SDS011;22383;51.114;13.666;2024-03-06T07:09:38;79.75;;;32.55;;
36353;SDS011;22383;51.114;13.666;2024-03-06T07:14:34;78.88;;;29.77;;
36353;SDS011;22383;51.114;13.666;2024-03-06T07:17:01;88.57;;;32.22;;
36353;SDS011;22383;51.114;13.666;2024-03-06T07:19:30;78.38;;;31.70;;
36353;SDS011;22383;51.114;13.666;2024-03-06T07:21:57;88.80;;;33.97;;
36353;SDS011;22383;51.114;13.666;2024-03-06T07:26:52;92.93;;;35.03;;
36353;SDS011;22383;51.114;13.666;2024-03-06T07:29:20;103.53;;;35.78;;
36353;SDS011;22383;51.114;13.666;2024-03-06T07:31:47;92.47;;;34.60;;
36353;SDS011;22383;51.114;13.666;2024-03-06T07:34:14;78.72;;;31.95;;
36353;SDS011;22383;51.114;13.666;2024-03-06T07:36:41;92.82;;;37.00;;
36353;SDS011;22383;51.114;13.666;2024-03-06T07:39:09;87.43;;;34.80;;
36353;SDS011;22383;51.114;13.666;2024-03-06T07:41:36;88.30;;;34.13;;
36353;SDS011;22383;51.114;13.666;2024-03-06T07:44:03;96.57;;;37.40;;
36353;SDS011;22383;51.114;13.666;2024-03-06T07:46:30;92.22;;;36.10;;
36353;SDS011;22383;51.114;13.666;2024-03-06T07:48:57;91.07;;;36.47;;
36353;SDS011;22383;51.114;13.666;2024-03-06T07:51:24;90.30;;;35.85;;
36353;SDS011;22383;51.114;13.666;2024-03-06T07:53:52;88.20;;;33.25;;
36353;SDS011;22383;51.114;13.666;2024-03-06T07:56:19;79.70;;;34.13;;
36353;SDS011;22383;51.114;13.666;2024-03-06T07:58:46;85.03;;;33.70;;
36353;SDS011;22383;51.114;13.666;2024-03-06T08:01:13;89.30;;;36.80;;
36353;SDS011;22383;51.114;13.666;2024-03-06T08:03:41;84.53;;;35.13;;
36353;SDS011;22383;51.114;13.666;2024-03-06T08:06:10;96.03;;;34.33;;
36353;SDS011;22383;51.114;13.666;2024-03-06T08:08:39;78.38;;;32.50;;
36353;SDS011;22383;51.114;13.666;2024-03-06T08:11:08;81.28;;;31.42;;
36353;SDS011;22383;51.114;13.666;2024-03-06T08:13:38;80.13;;;31.15;;
36353;SDS011;22383;51.114;13.666;2024-03-06T08:16:06;78.28;;;32.28;;
36353;SDS011;22383;51.114;13.666;2024-03-06T08:18:36;73.07;;;31.10;;
36353;SDS011;22383;51.114;13.666;2024-03-06T08:21:03;76.10;;;32.88;;
36353;SDS011;22383;51.114;13.666;2024-03-06T08:23:33;76.40;;;33.08;;
36353;SDS011;22383;51.114;13.666;2024-03-06T08:26:00;74.82;;;31.65;;
36353;SDS011;22383;51.114;13.666;2024-03-06T08:28:27;69.85;;;29.85;;
36353;SDS011;22383;51.114;13.666;2024-03-06T08:30:55;65.65;;;29.15;;
36353;SDS011;22383;51.114;13.666;2024-03-06T08:33:22;65.03;;;28.58;;
36353;SDS011;22383;51.114;13.666;2024-03-06T08:35:50;71.78;;;32.13;;
36353;SDS011;22383;51.114;13.666;2024-03-06T08:38:17;68.60;;;30.48;;
36353;SDS011;22383;51.114;13.666;2024-03-06T08:40:45;60.17;;;29.17;;
36353;SDS011;22383;51.114;13.666;2024-03-06T08:43:15;62.08;;;27.80;;
36353;SDS011;22383;51.114;13.666;2024-03-06T08:48:10;65.97;;;28.45;;
36353;SDS011;22383;51.114;13.666;2024-03-06T08:50:38;59.17;;;27.67;;
36353;SDS011;22383;51.114;13.666;2024-03-06T08:55:33;57.35;;;25.90;;
36353;SDS011;22383;51.114;13.666;2024-03-06T08:58:00;63.92;;;30.55;;
36353;SDS011;22383;51.114;13.666;2024-03-06T09:00:28;71.35;;;32.58;;
36353;SDS011;22383;51.114;13.666;2024-03-06T09:02:55;79.43;;;34.70;;
36353;SDS011;22383;51.114;13.666;2024-03-06T09:05:23;69.03;;;29.98;;
36353;SDS011;22383;51.114;13.666;2024-03-06T09:07:50;69.32;;;31.40;;
36353;SDS011;22383;51.114;13.666;2024-03-06T09:10:17;67.55;;;32.35;;
36353;SDS011;22383;51.114;13.666;2024-03-06T09:12:46;73.28;;;33.28;;
36353;SDS011;22383;51.114;13.666;2024-03-06T09:15:14;60.38;;;28.10;;
36353;SDS011;22383;51.114;13.666;2024-03-06T09:17:42;64.78;;;30.27;;
36353;SDS011;22383;51.114;13.666;2024-03-06T09:20:09;65.38;;;31.70;;
36353;SDS011;22383;51.114;13.666;2024-03-06T09:22:39;60.22;;;30.70;;
36353;SDS011;22383;51.114;13.666;2024-03-06T09:25:07;58.63;;;29.15;;
36353;SDS011;22383;51.114;13.666;2024-03-06T09:30:03;62.33;;;28.83;;
36353;SDS011;22383;51.114;13.666;2024-03-06T09:32:30;66.47;;;29.30;;
36353;SDS011;22383;51.114;13.666;2024-03-06T09:37:26;73.15;;;30.88;;
36353;SDS011;22383;51.114;13.666;2024-03-06T09:39:54;73.90;;;32.78;;
36353;SDS011;22383;51.114;13.666;2024-03-06T09:42:24;75.75;;;31.75;;
36353;SDS011;22383;51.114;13.666;2024-03-06T09:44:52;78.80;;;35.50;;
36353;SDS011;22383;51.114;13.666;2024-03-06T09:47:21;71.10;;;32.13;;
36353;SDS011;22383;51.114;13.666;2024-03-06T09:49:52;72.95;;;31.20;;
36353;SDS011;22383;51.114;13.666;2024-03-06T09:52:23;82.65;;;33.10;;
36353;SDS011;22383;51.114;13.666;2024-03-06T09:54:54;79.00;;;33.80;;
36353;SDS011;22383;51.114;13.666;2024-03-06T09:57:23;93.13;;;41.35;;
36353;SDS011;22383;51.114;13.666;2024-03-06T10:02:30;76.30;;;32.17;;
36353;SDS011;22383;51.114;13.666;2024-03-06T10:05:05;70.83;;;31.63;;
36353;SDS011;22383;51.114;13.666;2024-03-06T10:07:34;81.57;;;33.67;;
36353;SDS011;22383;51.114;13.666;2024-03-06T10:10:01;81.63;;;34.30;;
36353;SDS011;22383;51.114;13.666;2024-03-06T10:12:28;80.53;;;33.60;;
36353;SDS011;22383;51.114;13.666;2024-03-06T10:14:56;81.75;;;33.78;;
36353;SDS011;22383;51.114;13.666;2024-03-06T10:17:24;78.97;;;32.65;;
36353;SDS011;22383;51.114;13.666;2024-03-06T10:19:55;72.15;;;32.78;;
36353;SDS011;22383;51.114;13.666;2024-03-06T10:22:25;75.80;;;32.28;;
36353;SDS011;22383;51.114;13.666;2024-03-06T10:24:55;76.18;;;32.55;;
36353;SDS011;22383;51.114;13.666;2024-03-06T10:27:23;69.38;;;32.60;;
36353;SDS011;22383;51.114;13.666;2024-03-06T10:30:03;78.32;;;32.78;;
36353;SDS011;22383;51.114;13.666;2024-03-06T10:32:32;75.10;;;32.25;;
36353;SDS011;22383;51.114;13.666;2024-03-06T10:35:00;68.40;;;31.98;;
36353;SDS011;22383;51.114;13.666;2024-03-06T10:37:28;78.40;;;34.25;;
36353;SDS011;22383;51.114;13.666;2024-03-06T10:39:56;76.20;;;34.10;;
36353;SDS011;22383;51.114;13.666;2024-03-06T10:42:26;69.70;;;31.90;;
36353;SDS011;22383;51.114;13.666;2024-03-06T10:44:55;74.82;;;33.80;;
36353;SDS011;22383;51.114;13.666;2024-03-06T10:47:26;81.88;;;32.33;;
36353;SDS011;22383;51.114;13.666;2024-03-06T10:49:55;72.05;;;33.80;;
36353;SDS011;22383;51.114;13.666;2024-03-06T10:52:27;71.95;;;33.13;;
36353;SDS011;22383;51.114;13.666;2024-03-06T10:54:54;70.80;;;31.83;;
36353;SDS011;22383;51.114;13.666;2024-03-06T10:57:25;78.28;;;34.47;;
36353;SDS011;22383;51.114;13.666;2024-03-06T10:59:52;70.25;;;29.33;;
36353;SDS011;22383;51.114;13.666;2024-03-06T11:02:20;71.70;;;31.80;;
36353;SDS011;22383;51.114;13.666;2024-03-06T11:04:49;69.85;;;31.05;;
36353;SDS011;22383;51.114;13.666;2024-03-06T11:07:18;69.78;;;32.03;;
36353;SDS011;22383;51.114;13.666;2024-03-06T11:09:45;75.00;;;31.77;;
36353;SDS011;22383;51.114;13.666;2024-03-06T11:15:15;66.60;;;29.48;;
36353;SDS011;22383;51.114;13.666;2024-03-06T11:17:43;59.95;;;28.27;;
36353;SDS011;22383;51.114;13.666;2024-03-06T11:20:15;65.72;;;29.88;;
36353;SDS011;22383;51.114;13.666;2024-03-06T11:28:17;68.75;;;29.35;;
36353;SDS011;22383;51.114;13.666;2024-03-06T11:30:55;69.47;;;30.08;;
36353;SDS011;22383;51.114;13.666;2024-03-06T11:33:42;77.05;;;31.35;;
36353;SDS011;22383;51.114;13.666;2024-03-06T11:41:28;71.60;;;31.40;;
36353;SDS011;22383;51.114;13.666;2024-03-06T11:43:59;66.70;;;29.48;;
36353;SDS011;22383;51.114;13.666;2024-03-06T11:51:48;69.28;;;29.90;;
36353;SDS011;22383;51.114;13.666;2024-03-06T11:56:45;74.78;;;29.65;;
36353;SDS011;22383;51.114;13.666;2024-03-06T11:59:14;73.05;;;29.70;;
36353;SDS011;22383;51.114;13.666;2024-03-06T12:01:41;78.90;;;30.58;;
36353;SDS011;22383;51.114;13.666;2024-03-06T12:04:09;74.38;;;31.95;;
36353;SDS011;22383;51.114;13.666;2024-03-06T12:06:36;73.43;;;31.08;;
36353;SDS011;22383;51.114;13.666;2024-03-06T12:11:31;63.35;;;26.50;;
36353;SDS011;22383;51.114;13.666;2024-03-06T12:13:58;70.20;;;28.55;;
36353;SDS011;22383;51.114;13.666;2024-03-06T12:16:26;67.38;;;29.10;;
36353;SDS011;22383;51.114;13.666;2024-03-06T12:18:54;67.90;;;29.40;;
36353;SDS011;22383;51.114;13.666;2024-03-06T12:21:28;54.92;;;25.30;;
36353;SDS011;22383;51.114;13.666;2024-03-06T12:26:31;65.28;;;26.85;;
36353;SDS011;22383;51.114;13.666;2024-03-06T12:29:08;63.47;;;27.33;;
36353;SDS011;22383;51.114;13.666;2024-03-06T12:31:37;64.82;;;28.10;;
36353;SDS011;22383;51.114;13.666;2024-03-06T12:34:06;63.22;;;29.30;;
36353;SDS011;22383;51.114;13.666;2024-03-06T12:36:34;55.80;;;25.60;;
36353;SDS011;22383;51.114;13.666;2024-03-06T12:39:02;57.40;;;28.27;;
36353;SDS011;22383;51.114;13.666;2024-03-06T12:41:30;60.88;;;27.73;;
36353;SDS011;22383;51.114;13.666;2024-03-06T12:43:57;54.00;;;24.75;;
36353;SDS011;22383;51.114;13.666;2024-03-06T12:46:24;65.95;;;25.83;;
36353;SDS011;22383;51.114;13.666;2024-03-06T12:48:53;55.83;;;25.25;;
36353;SDS011;22383;51.114;13.666;2024-03-06T12:51:20;53.40;;;25.55;;
36353;SDS011;22383;51.114;13.666;2024-03-06T12:53:49;57.92;;;25.25;;
36353;SDS011;22383;51.114;13.666;2024-03-06T12:56:16;53.97;;;25.40;;
36353;SDS011;22383;51.114;13.666;2024-03-06T12:58:44;55.85;;;25.25;;
36353;SDS011;22383;51.114;13.666;2024-03-06T13:01:11;57.75;;;25.63;;
36353;SDS011;22383;51.114;13.666;2024-03-06T13:03:38;51.35;;;24.73;;
36353;SDS011;22383;51.114;13.666;2024-03-06T13:06:06;62.60;;;26.52;;
36353;SDS011;22383;51.114;13.666;2024-03-06T13:08:33;58.08;;;25.85;;
36353;SDS011;22383;51.114;13.666;2024-03-06T13:11:00;61.58;;;27.08;;
36353;SDS011;22383;51.114;13.666;2024-03-06T13:13:27;56.35;;;24.63;;
36353;SDS011;22383;51.114;13.666;2024-03-06T13:18:23;54.55;;;24.50;;
36353;SDS011;22383;51.114;13.666;2024-03-06T13:20:52;57.25;;;25.42;;
36353;SDS011;22383;51.114;13.666;2024-03-06T13:23:20;54.15;;;25.48;;
36353;SDS011;22383;51.114;13.666;2024-03-06T13:25:49;48.28;;;23.95;;
36353;SDS011;22383;51.114;13.666;2024-03-06T13:28:16;49.97;;;24.08;;
36353;SDS011;22383;51.114;13.666;2024-03-06T13:30:43;49.95;;;24.17;;
36353;SDS011;22383;51.114;13.666;2024-03-06T13:33:11;45.95;;;22.23;;
36353;SDS011;22383;51.114;13.666;2024-03-06T13:35:39;44.10;;;21.15;;
36353;SDS011;22383;51.114;13.666;2024-03-06T13:38:06;46.05;;;20.10;;
36353;SDS011;22383;51.114;13.666;2024-03-06T13:40:33;40.80;;;19.00;;
36353;SDS011;22383;51.114;13.666;2024-03-06T13:43:01;41.55;;;20.17;;
36353;SDS011;22383;51.114;13.666;2024-03-06T13:45:28;45.35;;;20.42;;
36353;SDS011;22383;51.114;13.666;2024-03-06T13:47:55;50.72;;;21.77;;
36353;SDS011;22383;51.114;13.666;2024-03-06T13:50:23;38.85;;;19.92;;
36353;SDS011;22383;51.114;13.666;2024-03-06T13:52:52;33.75;;;17.20;;
36353;SDS011;22383;51.114;13.666;2024-03-06T13:55:19;45.05;;;17.63;;
36353;SDS011;22383;51.114;13.666;2024-03-06T13:57:47;37.53;;;17.35;;
36353;SDS011;22383;51.114;13.666;2024-03-06T14:00:14;46.38;;;20.17;;
36353;SDS011;22383;51.114;13.666;2024-03-06T14:02:45;45.45;;;21.00;;
36353;SDS011;22383;51.114;13.666;2024-03-06T14:05:13;43.22;;;21.15;;
36353;SDS011;22383;51.114;13.666;2024-03-06T14:07:43;42.13;;;18.95;;
36353;SDS011;22383;51.114;13.666;2024-03-06T14:10:10;40.08;;;20.35;;
36353;SDS011;22383;51.114;13.666;2024-03-06T14:12:38;41.03;;;18.48;;
36353;SDS011;22383;51.114;13.666;2024-03-06T14:17:40;44.33;;;18.75;;
36353;SDS011;22383;51.114;13.666;2024-03-06T14:20:08;36.90;;;17.08;;
36353;SDS011;22383;51.114;13.666;2024-03-06T14:22:39;39.25;;;18.80;;
36353;SDS011;22383;51.114;13.666;2024-03-06T14:27:34;36.67;;;17.52;;
36353;SDS011;22383;51.114;13.666;2024-03-06T14:30:03;41.85;;;18.35;;
36353;SDS011;22383;51.114;13.666;2024-03-06T14:32:31;46.67;;;18.85;;
36353;SDS011;22383;51.114;13.666;2024-03-06T14:34:59;47.00;;;19.02;;
36353;SDS011;22383;51.114;13.666;2024-03-06T14:37:26;41.72;;;19.50;;
36353;SDS011;22383;51.114;13.666;2024-03-06T14:39:53;43.30;;;18.83;;
36353;SDS011;22383;51.114;13.666;2024-03-06T14:42:20;43.85;;;19.17;;
36353;SDS011;22383;51.114;13.666;2024-03-06T14:44:48;33.13;;;18.08;;
36353;SDS011;22383;51.114;13.666;2024-03-06T14:49:43;49.67;;;17.40;;
36353;SDS011;22383;51.114;13.666;2024-03-06T14:52:13;38.88;;;19.30;;
36353;SDS011;22383;51.114;13.666;2024-03-06T14:54:40;45.22;;;19.77;;
36353;SDS011;22383;51.114;13.666;2024-03-06T14:57:11;41.55;;;18.48;;
36353;SDS011;22383;51.114;13.666;2024-03-06T14:59:39;36.35;;;16.75;;
36353;SDS011;22383;51.114;13.666;2024-03-06T15:02:06;39.25;;;18.38;;
36353;SDS011;22383;51.114;13.666;2024-03-06T15:04:33;39.05;;;17.70;;
36353;SDS011;22383;51.114;13.666;2024-03-06T15:07:01;30.10;;;14.20;;
36353;SDS011;22383;51.114;13.666;2024-03-06T15:09:28;33.92;;;14.93;;
36353;SDS011;22383;51.114;13.666;2024-03-06T15:11:56;40.22;;;16.55;;
36353;SDS011;22383;51.114;13.666;2024-03-06T15:14:24;43.17;;;16.98;;
36353;SDS011;22383;51.114;13.666;2024-03-06T15:16:53;42.42;;;18.45;;
36353;SDS011;22383;51.114;13.666;2024-03-06T15:19:20;37.08;;;15.05;;
36353;SDS011;22383;51.114;13.666;2024-03-06T15:21:47;35.80;;;14.30;;
36353;SDS011;22383;51.114;13.666;2024-03-06T15:24:14;33.83;;;13.82;;
36353;SDS011;22383;51.114;13.666;2024-03-06T15:26:42;30.73;;;13.50;;
36353;SDS011;22383;51.114;13.666;2024-03-06T15:29:09;28.67;;;13.30;;
36353;SDS011;22383;51.114;13.666;2024-03-06T15:31:39;34.83;;;16.25;;
36353;SDS011;22383;51.114;13.666;2024-03-06T15:34:06;29.02;;;14.38;;